CMP128 MPTO-MDSD
Flight info
| Callsign | CMP128 |
|---|---|
| Flight time | 2h 5m |
| Altitude | 35000 |
| Route | EGETA3A EGETA DCT AGUJA UM597 GABRA GABRA2G |
| Aircraft | B38M/M-SDE1FGHILORVWXY/HB1 |
Departure
| Time | 2026-05-07 18:56 |
|---|---|
| Airport | Tocumen International Airport (MPTO) |
Arrival
| Time | 2026-05-07 21:02 |
|---|---|
| Airport | Las Américas International Airport (MDSD) |
| Time | Latitude | Longitude | Altitude | Speed | Heading |
|---|---|---|---|---|---|
| 2026-05-07 18:22 | 9.06711 | -79.38562 | 32 ft | 0 kts | 300° |
| 2026-05-07 18:42 | 9.06707 | -79.38555 | 32 ft | 4 kts | 300° |
| 2026-05-07 18:42 | 9.06693 | -79.38532 | 32 ft | 4 kts | 302° |
| 2026-05-07 18:42 | 9.06679 | -79.38508 | 32 ft | 4 kts | 302° |
| 2026-05-07 18:43 | 9.06667 | -79.38489 | 32 ft | 4 kts | 304° |
| 2026-05-07 18:43 | 9.06648 | -79.38473 | 32 ft | 4 kts | 339° |
| 2026-05-07 18:43 | 9.06626 | -79.38466 | 32 ft | 1 kts | 346° |
| 2026-05-07 18:43 | 9.06624 | -79.38465 | 32 ft | 0 kts | 346° |
| 2026-05-07 18:46 | 9.06631 | -79.38467 | 32 ft | 3 kts | 353° |
| 2026-05-07 18:46 | 9.06675 | -79.38444 | 32 ft | 12 kts | 36° |
| 2026-05-07 18:47 | 9.06771 | -79.38401 | 32 ft | 16 kts | 25° |
| 2026-05-07 18:47 | 9.06870 | -79.38400 | 32 ft | 16 kts | 319° |
| 2026-05-07 18:47 | 9.06894 | -79.38425 | 32 ft | 0 kts | 307° |
| 2026-05-07 18:47 | 9.06905 | -79.38441 | 33 ft | 7 kts | 307° |
| 2026-05-07 18:48 | 9.06975 | -79.38454 | 33 ft | 14 kts | 18° |
| 2026-05-07 18:48 | 9.07049 | -79.38417 | 33 ft | 9 kts | 23° |
| 2026-05-07 18:48 | 9.07101 | -79.38388 | 33 ft | 9 kts | 31° |
| 2026-05-07 18:48 | 9.07145 | -79.38374 | 33 ft | 3 kts | 321° |
| 2026-05-07 18:49 | 9.07155 | -79.38400 | 33 ft | 7 kts | 288° |
| 2026-05-07 18:49 | 9.07185 | -79.38473 | 33 ft | 15 kts | 295° |
| 2026-05-07 18:49 | 9.07237 | -79.38574 | 36 ft | 16 kts | 297° |
| 2026-05-07 18:49 | 9.07249 | -79.38603 | 38 ft | 0 kts | 290° |
| 2026-05-07 18:53 | 9.07258 | -79.38628 | 40 ft | 6 kts | 289° |
| 2026-05-07 18:54 | 9.07265 | -79.38648 | 43 ft | 0 kts | 290° |
| 2026-05-07 18:54 | 9.07271 | -79.38663 | 43 ft | 6 kts | 290° |
| 2026-05-07 18:54 | 9.07327 | -79.38698 | 49 ft | 15 kts | 13° |
| 2026-05-07 18:55 | 9.07371 | -79.38676 | 50 ft | 0 kts | 30° |
| 2026-05-07 18:55 | 9.07430 | -79.38641 | 51 ft | 34 kts | 30° |
| 2026-05-07 18:55 | 9.07876 | -79.38373 | 51 ft | 112 kts | 30° |
| 2026-05-07 18:55 | 9.08736 | -79.37860 | 55 ft | 171 kts | 32° |
| 2026-05-07 18:56 | 9.09795 | -79.37232 | 620 ft | 176 kts | 31° |
| 2026-05-07 18:56 | 9.10841 | -79.36616 | 1343 ft | 171 kts | 30° |
| 2026-05-07 18:56 | 9.11855 | -79.35994 | 1887 ft | 179 kts | 31° |
| 2026-05-07 18:56 | 9.12919 | -79.35174 | 2074 ft | 206 kts | 38° |
| 2026-05-07 18:57 | 9.14071 | -79.34216 | 2387 ft | 227 kts | 38° |
| 2026-05-07 18:57 | 9.15338 | -79.33174 | 2802 ft | 238 kts | 38° |
| 2026-05-07 18:57 | 9.16659 | -79.32097 | 3234 ft | 252 kts | 38° |
| 2026-05-07 18:57 | 9.18062 | -79.30956 | 3609 ft | 264 kts | 38° |
| 2026-05-07 18:58 | 9.19498 | -79.29797 | 4197 ft | 265 kts | 38° |
| 2026-05-07 18:58 | 9.20950 | -79.28627 | 4795 ft | 267 kts | 38° |
| 2026-05-07 18:58 | 9.22408 | -79.27454 | 5346 ft | 270 kts | 38° |
| 2026-05-07 18:58 | 9.23886 | -79.26265 | 5853 ft | 273 kts | 39° |
| 2026-05-07 18:59 | 9.25377 | -79.25065 | 6396 ft | 274 kts | 39° |
| 2026-05-07 18:59 | 9.26875 | -79.23859 | 6853 ft | 278 kts | 39° |
| 2026-05-07 18:59 | 9.28395 | -79.22637 | 7349 ft | 279 kts | 39° |
| 2026-05-07 18:59 | 9.29924 | -79.21408 | 7818 ft | 282 kts | 39° |
| 2026-05-07 19:00 | 9.31469 | -79.20165 | 8314 ft | 286 kts | 40° |
| 2026-05-07 19:00 | 9.33025 | -79.18912 | 9185 ft | 286 kts | 40° |
| 2026-05-07 19:00 | 9.34597 | -79.17648 | 9935 ft | 291 kts | 40° |
| 2026-05-07 19:00 | 9.36209 | -79.16350 | 10485 ft | 304 kts | 40° |
| 2026-05-07 19:01 | 9.37913 | -79.14980 | 10836 ft | 321 kts | 40° |
| 2026-05-07 19:01 | 9.39685 | -79.13552 | 11365 ft | 329 kts | 40° |
| 2026-05-07 19:01 | 9.41488 | -79.12101 | 11804 ft | 331 kts | 41° |
| 2026-05-07 19:01 | 9.43290 | -79.10651 | 11946 ft | 331 kts | 41° |
| 2026-05-07 19:02 | 9.45090 | -79.09202 | 11995 ft | 330 kts | 41° |
| 2026-05-07 19:02 | 9.46886 | -79.07746 | 11993 ft | 331 kts | 43° |
| 2026-05-07 19:02 | 9.48444 | -79.06052 | 12586 ft | 328 kts | 50° |
| 2026-05-07 19:02 | 9.49977 | -79.04329 | 13353 ft | 330 kts | 50° |
| 2026-05-07 19:03 | 9.51532 | -79.02608 | 14084 ft | 332 kts | 50° |
| 2026-05-07 19:03 | 9.53105 | -79.00879 | 14707 ft | 336 kts | 50° |
| 2026-05-07 19:03 | 9.54705 | -78.99132 | 15300 ft | 340 kts | 49° |
| 2026-05-07 19:03 | 9.56326 | -78.97366 | 15890 ft | 344 kts | 49° |
| 2026-05-07 19:04 | 9.57967 | -78.95579 | 16469 ft | 348 kts | 49° |
| 2026-05-07 19:04 | 9.59625 | -78.93774 | 17034 ft | 353 kts | 49° |
| 2026-05-07 19:04 | 9.61306 | -78.91944 | 17592 ft | 356 kts | 49° |
| 2026-05-07 19:04 | 9.63003 | -78.90096 | 18133 ft | 360 kts | 49° |
| 2026-05-07 19:05 | 9.64719 | -78.88228 | 18607 ft | 364 kts | 49° |
| 2026-05-07 19:05 | 9.66448 | -78.86345 | 19119 ft | 366 kts | 49° |
| 2026-05-07 19:05 | 9.68182 | -78.84456 | 19638 ft | 367 kts | 48° |
| 2026-05-07 19:05 | 9.69924 | -78.82558 | 20116 ft | 369 kts | 48° |
| 2026-05-07 19:06 | 9.71676 | -78.80650 | 20607 ft | 370 kts | 48° |
| 2026-05-07 19:06 | 9.75205 | -78.76803 | 21532 ft | 375 kts | 48° |
| 2026-05-07 19:06 | 9.76984 | -78.74863 | 21993 ft | 377 kts | 48° |
| 2026-05-07 19:07 | 9.78773 | -78.72913 | 22440 ft | 379 kts | 48° |
| 2026-05-07 19:07 | 9.80567 | -78.70956 | 22875 ft | 381 kts | 47° |
| 2026-05-07 19:07 | 9.82376 | -78.68983 | 23315 ft | 383 kts | 47° |
| 2026-05-07 19:07 | 9.84193 | -78.67001 | 23688 ft | 385 kts | 47° |
| 2026-05-07 19:08 | 9.86021 | -78.65006 | 24020 ft | 387 kts | 47° |
| 2026-05-07 19:08 | 9.87835 | -78.63026 | 24352 ft | 390 kts | 47° |
| 2026-05-07 19:08 | 9.89685 | -78.61007 | 24693 ft | 392 kts | 47° |
| 2026-05-07 19:08 | 9.91544 | -78.58978 | 25031 ft | 394 kts | 47° |
| 2026-05-07 19:09 | 9.93414 | -78.56936 | 25360 ft | 396 kts | 48° |
| 2026-05-07 19:09 | 9.95292 | -78.54885 | 25686 ft | 398 kts | 48° |
| 2026-05-07 19:09 | 9.97181 | -78.52821 | 26005 ft | 400 kts | 48° |
| 2026-05-07 19:09 | 9.99077 | -78.50750 | 26332 ft | 402 kts | 48° |
| 2026-05-07 19:10 | 10.00988 | -78.48663 | 26646 ft | 405 kts | 47° |
| 2026-05-07 19:10 | 10.02910 | -78.46562 | 26931 ft | 408 kts | 47° |
| 2026-05-07 19:10 | 10.04846 | -78.44446 | 27239 ft | 410 kts | 47° |
| 2026-05-07 19:10 | 10.06791 | -78.42319 | 27548 ft | 412 kts | 47° |
| 2026-05-07 19:11 | 10.08747 | -78.40180 | 27855 ft | 414 kts | 47° |
| 2026-05-07 19:11 | 10.10713 | -78.38030 | 28145 ft | 417 kts | 47° |
| 2026-05-07 19:11 | 10.12690 | -78.35868 | 28444 ft | 419 kts | 47° |
| 2026-05-07 19:11 | 10.14677 | -78.33694 | 28735 ft | 421 kts | 47° |
| 2026-05-07 19:12 | 10.16675 | -78.31507 | 29023 ft | 423 kts | 47° |
| 2026-05-07 19:12 | 10.18682 | -78.29310 | 29305 ft | 425 kts | 47° |
| 2026-05-07 19:12 | 10.20695 | -78.27106 | 29582 ft | 428 kts | 47° |
| 2026-05-07 19:12 | 10.22723 | -78.24886 | 29848 ft | 430 kts | 47° |
| 2026-05-07 19:13 | 10.24760 | -78.22655 | 30096 ft | 432 kts | 47° |
| 2026-05-07 19:13 | 10.26115 | -78.21170 | 30238 ft | 433 kts | 47° |
| 2026-05-07 19:13 | 10.28168 | -78.18921 | 30478 ft | 435 kts | 47° |
| 2026-05-07 19:13 | 10.30925 | -78.15899 | 30777 ft | 438 kts | 47° |
| 2026-05-07 19:14 | 10.32299 | -78.14394 | 30926 ft | 439 kts | 47° |
| 2026-05-07 19:14 | 10.34378 | -78.12114 | 31140 ft | 441 kts | 47° |
| 2026-05-07 19:14 | 10.36462 | -78.09830 | 31368 ft | 443 kts | 47° |
| 2026-05-07 19:14 | 10.38558 | -78.07530 | 31607 ft | 444 kts | 47° |
| 2026-05-07 19:15 | 10.40662 | -78.05223 | 31827 ft | 446 kts | 47° |
| 2026-05-07 19:15 | 10.42774 | -78.02906 | 32043 ft | 448 kts | 47° |
| 2026-05-07 19:15 | 10.44894 | -78.00578 | 32255 ft | 450 kts | 47° |
| 2026-05-07 19:15 | 10.47024 | -77.98241 | 32466 ft | 452 kts | 47° |
| 2026-05-07 19:16 | 10.49164 | -77.95892 | 32694 ft | 453 kts | 47° |
| 2026-05-07 19:16 | 10.51308 | -77.93537 | 32953 ft | 454 kts | 47° |
| 2026-05-07 19:16 | 10.53451 | -77.91183 | 33258 ft | 453 kts | 47° |
| 2026-05-07 19:16 | 10.55591 | -77.88832 | 33556 ft | 453 kts | 47° |
| 2026-05-07 19:17 | 10.57728 | -77.86483 | 33866 ft | 452 kts | 47° |
| 2026-05-07 19:17 | 10.59862 | -77.84137 | 34125 ft | 452 kts | 47° |
| 2026-05-07 19:17 | 10.61989 | -77.81800 | 34383 ft | 451 kts | 47° |
| 2026-05-07 19:17 | 10.64116 | -77.79460 | 34629 ft | 450 kts | 47° |
| 2026-05-07 19:18 | 10.66244 | -77.77121 | 34845 ft | 451 kts | 47° |
| 2026-05-07 19:18 | 10.68373 | -77.74778 | 34896 ft | 451 kts | 47° |
| 2026-05-07 19:18 | 10.72612 | -77.70113 | 34890 ft | 448 kts | 47° |
| 2026-05-07 19:19 | 10.76845 | -77.65452 | 34889 ft | 449 kts | 47° |
| 2026-05-07 19:19 | 10.81079 | -77.60789 | 34891 ft | 449 kts | 47° |
| 2026-05-07 19:20 | 10.85307 | -77.56130 | 34890 ft | 449 kts | 47° |
| 2026-05-07 19:20 | 10.89541 | -77.51463 | 34890 ft | 449 kts | 47° |
| 2026-05-07 19:21 | 10.93776 | -77.46793 | 34891 ft | 449 kts | 47° |
| 2026-05-07 19:21 | 10.97983 | -77.42159 | 34888 ft | 449 kts | 47° |
| 2026-05-07 19:22 | 11.02331 | -77.37534 | 34885 ft | 449 kts | 46° |
| 2026-05-07 19:22 | 11.06632 | -77.32945 | 34885 ft | 448 kts | 47° |
| 2026-05-07 19:23 | 11.10925 | -77.28362 | 34888 ft | 447 kts | 47° |
| 2026-05-07 19:23 | 11.15189 | -77.23807 | 34888 ft | 447 kts | 47° |
| 2026-05-07 19:24 | 11.19479 | -77.19223 | 34889 ft | 447 kts | 46° |
| 2026-05-07 19:24 | 11.23760 | -77.14645 | 34886 ft | 447 kts | 47° |
| 2026-05-07 19:25 | 11.28047 | -77.10060 | 34885 ft | 447 kts | 47° |
| 2026-05-07 19:25 | 11.32332 | -77.05475 | 34887 ft | 447 kts | 46° |
| 2026-05-07 19:26 | 11.36616 | -77.00889 | 34883 ft | 447 kts | 46° |
| 2026-05-07 19:26 | 11.41045 | -76.96450 | 34887 ft | 446 kts | 45° |
| 2026-05-07 19:27 | 11.45463 | -76.92011 | 34887 ft | 446 kts | 45° |
| 2026-05-07 19:27 | 11.49880 | -76.87568 | 34885 ft | 446 kts | 45° |
| 2026-05-07 19:28 | 11.54289 | -76.83131 | 34885 ft | 445 kts | 45° |
| 2026-05-07 19:28 | 11.58696 | -76.78693 | 34885 ft | 445 kts | 45° |
| 2026-05-07 19:29 | 11.63104 | -76.74252 | 34889 ft | 445 kts | 45° |
| 2026-05-07 19:29 | 11.67509 | -76.69813 | 34891 ft | 445 kts | 45° |
| 2026-05-07 19:30 | 11.71918 | -76.65368 | 34886 ft | 445 kts | 45° |
| 2026-05-07 19:30 | 11.76313 | -76.60933 | 34884 ft | 444 kts | 45° |
| 2026-05-07 19:31 | 11.80711 | -76.56495 | 34890 ft | 445 kts | 45° |
| 2026-05-07 19:31 | 11.85113 | -76.52049 | 34892 ft | 445 kts | 45° |
| 2026-05-07 19:32 | 11.89515 | -76.47604 | 34890 ft | 445 kts | 44° |
| 2026-05-07 19:32 | 11.93911 | -76.43174 | 34903 ft | 445 kts | 44° |
| 2026-05-07 19:33 | 11.98309 | -76.38725 | 34888 ft | 444 kts | 44° |
| 2026-05-07 19:33 | 12.02698 | -76.34282 | 34893 ft | 445 kts | 44° |
| 2026-05-07 19:34 | 12.07096 | -76.29831 | 34894 ft | 445 kts | 44° |
| 2026-05-07 19:34 | 12.11454 | -76.25416 | 34888 ft | 444 kts | 44° |
| 2026-05-07 19:35 | 12.15835 | -76.20977 | 34896 ft | 444 kts | 44° |
| 2026-05-07 19:35 | 12.20220 | -76.16528 | 34896 ft | 444 kts | 44° |
| 2026-05-07 19:36 | 12.24605 | -76.12084 | 34889 ft | 444 kts | 44° |
| 2026-05-07 19:36 | 12.28987 | -76.07641 | 34893 ft | 444 kts | 44° |
| 2026-05-07 19:37 | 12.33371 | -76.03193 | 34899 ft | 444 kts | 44° |
| 2026-05-07 19:37 | 12.37753 | -75.98746 | 34898 ft | 444 kts | 44° |
| 2026-05-07 19:38 | 12.42137 | -75.94288 | 34903 ft | 444 kts | 45° |
| 2026-05-07 19:38 | 12.46512 | -75.89843 | 34893 ft | 443 kts | 45° |
| 2026-05-07 19:39 | 12.50894 | -75.85390 | 34892 ft | 444 kts | 45° |
| 2026-05-07 19:39 | 12.55275 | -75.80936 | 34895 ft | 444 kts | 45° |
| 2026-05-07 19:40 | 12.59648 | -75.76487 | 34907 ft | 444 kts | 44° |
| 2026-05-07 19:40 | 12.64026 | -75.72031 | 34905 ft | 444 kts | 44° |
| 2026-05-07 19:41 | 12.68403 | -75.67574 | 34901 ft | 443 kts | 45° |
| 2026-05-07 19:41 | 12.72773 | -75.63121 | 34899 ft | 444 kts | 44° |
| 2026-05-07 19:42 | 12.77150 | -75.58660 | 34898 ft | 444 kts | 44° |
| 2026-05-07 19:42 | 12.81528 | -75.54195 | 34905 ft | 444 kts | 44° |
| 2026-05-07 19:43 | 12.85875 | -75.49759 | 34910 ft | 444 kts | 44° |
| 2026-05-07 19:43 | 12.90253 | -75.45290 | 34910 ft | 444 kts | 44° |
| 2026-05-07 19:44 | 12.94618 | -75.40825 | 34910 ft | 443 kts | 45° |
| 2026-05-07 19:44 | 12.98982 | -75.36353 | 34904 ft | 443 kts | 44° |
| 2026-05-07 19:45 | 13.03341 | -75.31886 | 34904 ft | 443 kts | 44° |
| 2026-05-07 19:45 | 13.07696 | -75.27419 | 34917 ft | 443 kts | 44° |
| 2026-05-07 19:46 | 13.12055 | -75.22946 | 34918 ft | 443 kts | 44° |
| 2026-05-07 19:46 | 13.16407 | -75.18479 | 34914 ft | 442 kts | 44° |
| 2026-05-07 19:47 | 13.20762 | -75.14011 | 34911 ft | 443 kts | 44° |
| 2026-05-07 19:47 | 13.25119 | -75.09541 | 34909 ft | 443 kts | 44° |
| 2026-05-07 19:48 | 13.29474 | -75.05072 | 34916 ft | 443 kts | 44° |
| 2026-05-07 19:48 | 13.33835 | -75.00594 | 34919 ft | 443 kts | 44° |
| 2026-05-07 19:49 | 13.38190 | -74.96119 | 34916 ft | 442 kts | 44° |
| 2026-05-07 19:49 | 13.42545 | -74.91642 | 34915 ft | 443 kts | 44° |
| 2026-05-07 19:50 | 13.46867 | -74.87194 | 34916 ft | 442 kts | 44° |
| 2026-05-07 19:50 | 13.51241 | -74.82694 | 34917 ft | 443 kts | 44° |
| 2026-05-07 19:51 | 13.55563 | -74.78244 | 34922 ft | 443 kts | 44° |
| 2026-05-07 19:51 | 13.59912 | -74.73763 | 34926 ft | 442 kts | 44° |
| 2026-05-07 19:52 | 13.64288 | -74.69251 | 34921 ft | 443 kts | 44° |
| 2026-05-07 19:52 | 13.68639 | -74.64762 | 34916 ft | 443 kts | 44° |
| 2026-05-07 19:53 | 13.72977 | -74.60286 | 34920 ft | 443 kts | 44° |
| 2026-05-07 19:53 | 13.77297 | -74.55825 | 34925 ft | 443 kts | 44° |
| 2026-05-07 19:54 | 13.81645 | -74.51334 | 34925 ft | 443 kts | 44° |
| 2026-05-07 19:54 | 13.85990 | -74.46842 | 34931 ft | 442 kts | 44° |
| 2026-05-07 19:55 | 13.90336 | -74.42346 | 34924 ft | 443 kts | 44° |
| 2026-05-07 19:55 | 13.94677 | -74.37854 | 34921 ft | 443 kts | 44° |
| 2026-05-07 19:56 | 13.99022 | -74.33355 | 34935 ft | 443 kts | 44° |
| 2026-05-07 19:56 | 14.03367 | -74.28853 | 34938 ft | 443 kts | 44° |
| 2026-05-07 19:57 | 14.07707 | -74.24353 | 34933 ft | 442 kts | 44° |
| 2026-05-07 19:57 | 14.12049 | -74.19850 | 34934 ft | 443 kts | 44° |
| 2026-05-07 19:58 | 14.16390 | -74.15345 | 34933 ft | 443 kts | 44° |
| 2026-05-07 19:58 | 14.20726 | -74.10846 | 34934 ft | 443 kts | 44° |
| 2026-05-07 19:59 | 14.25067 | -74.06338 | 34936 ft | 443 kts | 44° |
| 2026-05-07 19:59 | 14.29403 | -74.01833 | 34935 ft | 442 kts | 44° |
| 2026-05-07 20:00 | 14.33751 | -73.97340 | 34940 ft | 443 kts | 44° |
| 2026-05-07 20:00 | 14.37360 | -73.93612 | 34945 ft | 442 kts | 44° |
| 2026-05-07 20:01 | 14.41704 | -73.89123 | 34937 ft | 442 kts | 44° |
| 2026-05-07 20:01 | 14.46052 | -73.84627 | 34934 ft | 443 kts | 44° |
| 2026-05-07 20:02 | 14.50399 | -73.80129 | 34935 ft | 442 kts | 44° |
| 2026-05-07 20:02 | 14.54740 | -73.75635 | 34938 ft | 442 kts | 44° |
| 2026-05-07 20:03 | 14.59084 | -73.71134 | 34941 ft | 442 kts | 44° |
| 2026-05-07 20:03 | 14.63426 | -73.66634 | 34942 ft | 442 kts | 44° |
| 2026-05-07 20:04 | 14.67769 | -73.62131 | 34943 ft | 442 kts | 44° |
| 2026-05-07 20:04 | 14.72076 | -73.57661 | 34943 ft | 442 kts | 44° |
| 2026-05-07 20:05 | 14.76432 | -73.53138 | 34947 ft | 441 kts | 44° |
| 2026-05-07 20:05 | 14.80763 | -73.48638 | 34947 ft | 441 kts | 44° |
| 2026-05-07 20:06 | 14.85093 | -73.44137 | 34948 ft | 441 kts | 44° |
| 2026-05-07 20:06 | 14.89525 | -73.39805 | 35008 ft | 443 kts | 41° |
| 2026-05-07 20:07 | 14.91773 | -73.37635 | 35279 ft | 442 kts | 41° |
| 2026-05-07 20:07 | 14.94018 | -73.35462 | 35506 ft | 442 kts | 41° |
| 2026-05-07 20:07 | 14.96265 | -73.33286 | 35745 ft | 443 kts | 41° |
| 2026-05-07 20:07 | 14.98511 | -73.31109 | 35981 ft | 442 kts | 41° |
| 2026-05-07 20:08 | 15.00782 | -73.28907 | 36224 ft | 442 kts | 41° |
| 2026-05-07 20:08 | 15.02995 | -73.26761 | 36475 ft | 442 kts | 41° |
| 2026-05-07 20:08 | 15.05235 | -73.24588 | 36722 ft | 441 kts | 41° |
| 2026-05-07 20:08 | 15.07473 | -73.22412 | 36919 ft | 441 kts | 42° |
| 2026-05-07 20:09 | 15.11846 | -73.17950 | 36953 ft | 440 kts | 43° |
| 2026-05-07 20:10 | 15.18394 | -73.11277 | 36958 ft | 440 kts | 43° |
| 2026-05-07 20:10 | 15.22759 | -73.06828 | 36948 ft | 440 kts | 43° |
| 2026-05-07 20:11 | 15.27117 | -73.02383 | 36958 ft | 440 kts | 43° |
| 2026-05-07 20:11 | 15.31478 | -72.97932 | 36960 ft | 440 kts | 43° |
| 2026-05-07 20:12 | 15.35833 | -72.93477 | 36963 ft | 439 kts | 42° |
| 2026-05-07 20:12 | 15.40157 | -72.89033 | 36971 ft | 437 kts | 42° |
| 2026-05-07 20:13 | 15.44481 | -72.84589 | 36961 ft | 437 kts | 42° |
| 2026-05-07 20:13 | 15.48798 | -72.80149 | 36956 ft | 438 kts | 42° |
| 2026-05-07 20:14 | 15.53119 | -72.75702 | 36966 ft | 438 kts | 42° |
| 2026-05-07 20:14 | 15.57437 | -72.71256 | 36962 ft | 437 kts | 42° |
| 2026-05-07 20:15 | 15.61727 | -72.66835 | 36968 ft | 437 kts | 43° |
| 2026-05-07 20:15 | 15.66044 | -72.62385 | 36974 ft | 437 kts | 42° |
| 2026-05-07 20:16 | 15.70353 | -72.57939 | 36971 ft | 437 kts | 42° |
| 2026-05-07 20:16 | 15.74648 | -72.53505 | 36967 ft | 435 kts | 42° |
| 2026-05-07 20:17 | 15.78943 | -72.49068 | 36965 ft | 435 kts | 42° |
| 2026-05-07 20:17 | 15.83238 | -72.44629 | 36968 ft | 436 kts | 42° |
| 2026-05-07 20:18 | 15.87529 | -72.40190 | 36969 ft | 436 kts | 42° |
| 2026-05-07 20:18 | 15.91822 | -72.35748 | 36969 ft | 435 kts | 42° |
| 2026-05-07 20:19 | 15.96111 | -72.31307 | 36973 ft | 436 kts | 42° |
| 2026-05-07 20:19 | 16.00401 | -72.26862 | 36968 ft | 435 kts | 42° |
| 2026-05-07 20:20 | 16.04691 | -72.22418 | 36979 ft | 435 kts | 42° |
| 2026-05-07 20:20 | 16.08966 | -72.17986 | 36977 ft | 434 kts | 42° |
| 2026-05-07 20:21 | 16.13241 | -72.13550 | 36969 ft | 434 kts | 42° |
| 2026-05-07 20:21 | 16.17512 | -72.09116 | 36977 ft | 434 kts | 42° |
| 2026-05-07 20:22 | 16.21788 | -72.04674 | 36980 ft | 434 kts | 42° |
| 2026-05-07 20:22 | 16.26033 | -72.00262 | 36980 ft | 434 kts | 42° |
| 2026-05-07 20:23 | 16.30305 | -71.95818 | 36974 ft | 434 kts | 42° |
| 2026-05-07 20:23 | 16.34577 | -71.91372 | 36973 ft | 434 kts | 42° |
| 2026-05-07 20:24 | 16.38837 | -71.86934 | 36982 ft | 433 kts | 42° |
| 2026-05-07 20:24 | 16.43089 | -71.82504 | 36984 ft | 433 kts | 42° |
| 2026-05-07 20:25 | 16.47342 | -71.78068 | 36979 ft | 432 kts | 42° |
| 2026-05-07 20:25 | 16.51595 | -71.73630 | 36981 ft | 432 kts | 42° |
| 2026-05-07 20:26 | 16.55844 | -71.69192 | 36985 ft | 433 kts | 43° |
| 2026-05-07 20:26 | 16.60052 | -71.64714 | 36983 ft | 432 kts | 43° |
| 2026-05-07 20:27 | 16.64261 | -71.60233 | 36984 ft | 432 kts | 43° |
| 2026-05-07 20:27 | 16.68471 | -71.55751 | 36990 ft | 432 kts | 43° |
| 2026-05-07 20:28 | 16.72670 | -71.51276 | 36985 ft | 430 kts | 43° |
| 2026-05-07 20:28 | 16.76854 | -71.46815 | 36986 ft | 431 kts | 43° |
| 2026-05-07 20:29 | 16.81043 | -71.42345 | 36986 ft | 431 kts | 43° |
| 2026-05-07 20:29 | 16.85233 | -71.37872 | 36984 ft | 431 kts | 43° |
| 2026-05-07 20:30 | 16.89420 | -71.33400 | 36994 ft | 430 kts | 43° |
| 2026-05-07 20:30 | 16.93563 | -71.28901 | 36993 ft | 430 kts | 43° |
| 2026-05-07 20:31 | 16.97697 | -71.24391 | 36990 ft | 430 kts | 43° |
| 2026-05-07 20:31 | 17.01802 | -71.19912 | 36988 ft | 430 kts | 43° |
| 2026-05-07 20:32 | 17.05879 | -71.15460 | 36625 ft | 415 kts | 43° |
| 2026-05-07 20:32 | 17.07856 | -71.13300 | 36287 ft | 408 kts | 43° |
| 2026-05-07 20:32 | 17.09808 | -71.11167 | 35824 ft | 404 kts | 43° |
| 2026-05-07 20:32 | 17.11747 | -71.09047 | 35310 ft | 403 kts | 43° |
| 2026-05-07 20:33 | 17.13679 | -71.06935 | 34795 ft | 401 kts | 44° |
| 2026-05-07 20:33 | 17.15602 | -71.04830 | 34310 ft | 399 kts | 44° |
| 2026-05-07 20:33 | 17.17518 | -71.02734 | 33806 ft | 398 kts | 44° |
| 2026-05-07 20:33 | 17.19422 | -71.00651 | 33274 ft | 396 kts | 44° |
| 2026-05-07 20:34 | 17.21318 | -70.98575 | 32780 ft | 393 kts | 44° |
| 2026-05-07 20:34 | 17.23199 | -70.96514 | 32322 ft | 390 kts | 44° |
| 2026-05-07 20:34 | 17.25092 | -70.94491 | 31796 ft | 389 kts | 43° |
| 2026-05-07 20:34 | 17.26989 | -70.92476 | 31273 ft | 388 kts | 43° |
| 2026-05-07 20:35 | 17.28876 | -70.90468 | 30847 ft | 385 kts | 43° |
| 2026-05-07 20:35 | 17.30747 | -70.88475 | 30434 ft | 383 kts | 43° |
| 2026-05-07 20:35 | 17.32605 | -70.86494 | 30012 ft | 380 kts | 44° |
| 2026-05-07 20:35 | 17.34456 | -70.84520 | 29490 ft | 379 kts | 44° |
| 2026-05-07 20:36 | 17.36298 | -70.82557 | 29023 ft | 376 kts | 44° |
| 2026-05-07 20:36 | 17.38118 | -70.80615 | 28606 ft | 373 kts | 44° |
| 2026-05-07 20:36 | 17.39923 | -70.78688 | 28214 ft | 369 kts | 44° |
| 2026-05-07 20:36 | 17.41712 | -70.76778 | 27808 ft | 366 kts | 44° |
| 2026-05-07 20:37 | 17.43486 | -70.74884 | 27414 ft | 363 kts | 44° |
| 2026-05-07 20:37 | 17.45246 | -70.73004 | 27022 ft | 360 kts | 44° |
| 2026-05-07 20:37 | 17.46994 | -70.71136 | 26631 ft | 358 kts | 44° |
| 2026-05-07 20:37 | 17.48730 | -70.69281 | 26252 ft | 355 kts | 44° |
| 2026-05-07 20:38 | 17.50455 | -70.67437 | 25878 ft | 353 kts | 44° |
| 2026-05-07 20:38 | 17.52169 | -70.65604 | 25505 ft | 351 kts | 44° |
| 2026-05-07 20:38 | 17.53875 | -70.63779 | 25135 ft | 349 kts | 44° |
| 2026-05-07 20:38 | 17.55571 | -70.61964 | 24782 ft | 348 kts | 44° |
| 2026-05-07 20:39 | 17.57256 | -70.60161 | 24413 ft | 346 kts | 44° |
| 2026-05-07 20:39 | 17.58914 | -70.58386 | 24065 ft | 345 kts | 44° |
| 2026-05-07 20:39 | 17.60586 | -70.56595 | 23711 ft | 343 kts | 44° |
| 2026-05-07 20:39 | 17.62251 | -70.54811 | 23313 ft | 342 kts | 44° |
| 2026-05-07 20:40 | 17.63908 | -70.53036 | 22929 ft | 339 kts | 44° |
| 2026-05-07 20:40 | 17.65552 | -70.51274 | 22567 ft | 337 kts | 44° |
| 2026-05-07 20:40 | 17.67181 | -70.49528 | 22221 ft | 333 kts | 44° |
| 2026-05-07 20:40 | 17.68794 | -70.47798 | 21883 ft | 330 kts | 44° |
| 2026-05-07 20:41 | 17.70394 | -70.46082 | 21544 ft | 327 kts | 44° |
| 2026-05-07 20:41 | 17.71981 | -70.44379 | 21216 ft | 326 kts | 44° |
| 2026-05-07 20:41 | 17.73573 | -70.42670 | 20888 ft | 330 kts | 44° |
| 2026-05-07 20:41 | 17.75190 | -70.40934 | 20544 ft | 335 kts | 45° |
| 2026-05-07 20:42 | 17.76822 | -70.39182 | 20189 ft | 336 kts | 45° |
| 2026-05-07 20:42 | 17.78454 | -70.37428 | 19851 ft | 336 kts | 44° |
| 2026-05-07 20:42 | 17.80087 | -70.35674 | 19512 ft | 336 kts | 44° |
| 2026-05-07 20:42 | 17.81714 | -70.33925 | 19168 ft | 334 kts | 44° |
| 2026-05-07 20:43 | 17.83334 | -70.32184 | 18833 ft | 332 kts | 44° |
| 2026-05-07 20:43 | 17.84942 | -70.30454 | 18541 ft | 329 kts | 45° |
| 2026-05-07 20:43 | 17.86534 | -70.28725 | 18120 ft | 330 kts | 44° |
| 2026-05-07 20:43 | 17.88121 | -70.27000 | 17782 ft | 327 kts | 45° |
| 2026-05-07 20:44 | 17.89695 | -70.25288 | 17455 ft | 324 kts | 44° |
| 2026-05-07 20:44 | 17.91254 | -70.23594 | 17135 ft | 321 kts | 45° |
| 2026-05-07 20:44 | 17.92799 | -70.21913 | 16809 ft | 318 kts | 44° |
| 2026-05-07 20:44 | 17.94330 | -70.20248 | 16491 ft | 315 kts | 44° |
| 2026-05-07 20:45 | 17.95849 | -70.18596 | 16175 ft | 313 kts | 44° |
| 2026-05-07 20:45 | 17.97355 | -70.16957 | 15856 ft | 311 kts | 44° |
| 2026-05-07 20:45 | 17.98849 | -70.15330 | 15538 ft | 308 kts | 44° |
| 2026-05-07 20:45 | 18.00334 | -70.13713 | 15231 ft | 306 kts | 44° |
| 2026-05-07 20:46 | 18.01809 | -70.12107 | 14914 ft | 305 kts | 44° |
| 2026-05-07 20:46 | 18.03272 | -70.10512 | 14606 ft | 303 kts | 44° |
| 2026-05-07 20:46 | 18.04733 | -70.08921 | 14292 ft | 301 kts | 44° |
| 2026-05-07 20:46 | 18.06184 | -70.07339 | 13986 ft | 300 kts | 44° |
| 2026-05-07 20:47 | 18.07638 | -70.05755 | 13669 ft | 303 kts | 44° |
| 2026-05-07 20:47 | 18.09112 | -70.04147 | 13318 ft | 308 kts | 44° |
| 2026-05-07 20:47 | 18.10600 | -70.02524 | 12993 ft | 308 kts | 44° |
| 2026-05-07 20:47 | 18.12083 | -70.00905 | 12672 ft | 306 kts | 44° |
| 2026-05-07 20:48 | 18.13554 | -69.99300 | 12359 ft | 303 kts | 44° |
| 2026-05-07 20:48 | 18.15012 | -69.97708 | 12042 ft | 301 kts | 44° |
| 2026-05-07 20:48 | 18.16460 | -69.96128 | 11734 ft | 299 kts | 44° |
| 2026-05-07 20:48 | 18.17894 | -69.94562 | 11427 ft | 297 kts | 45° |
| 2026-05-07 20:49 | 18.19315 | -69.93009 | 11212 ft | 291 kts | 44° |
| 2026-05-07 20:49 | 18.20699 | -69.91496 | 11080 ft | 283 kts | 44° |
| 2026-05-07 20:49 | 18.22043 | -69.90026 | 10930 ft | 275 kts | 44° |
| 2026-05-07 20:49 | 18.23319 | -69.88591 | 10733 ft | 270 kts | 45° |
| 2026-05-07 20:50 | 18.24593 | -69.87144 | 10441 ft | 269 kts | 46° |
| 2026-05-07 20:50 | 18.25862 | -69.85707 | 10164 ft | 267 kts | 45° |
| 2026-05-07 20:50 | 18.27126 | -69.84276 | 9868 ft | 267 kts | 46° |
| 2026-05-07 20:50 | 18.28386 | -69.82848 | 9557 ft | 266 kts | 46° |
| 2026-05-07 20:51 | 18.29638 | -69.81430 | 9289 ft | 263 kts | 46° |
| 2026-05-07 20:51 | 18.30865 | -69.80039 | 9140 ft | 255 kts | 46° |
| 2026-05-07 20:51 | 18.31733 | -69.79190 | 8996 ft | 250 kts | 32° |
| 2026-05-07 20:51 | 18.33888 | -69.78552 | 8615 ft | 246 kts | 356° |
| 2026-05-07 20:52 | 18.34997 | -69.78775 | 8450 ft | 244 kts | 343° |
| 2026-05-07 20:52 | 18.36628 | -69.79306 | 8209 ft | 240 kts | 343° |
| 2026-05-07 20:52 | 18.38194 | -69.79828 | 7952 ft | 238 kts | 343° |
| 2026-05-07 20:52 | 18.39766 | -69.80361 | 7693 ft | 237 kts | 343° |
| 2026-05-07 20:53 | 18.41328 | -69.80898 | 7425 ft | 235 kts | 343° |
| 2026-05-07 20:53 | 18.42874 | -69.81434 | 7182 ft | 235 kts | 343° |
| 2026-05-07 20:53 | 18.44441 | -69.81980 | 6901 ft | 240 kts | 343° |
| 2026-05-07 20:53 | 18.46034 | -69.82538 | 6633 ft | 243 kts | 343° |
| 2026-05-07 20:54 | 18.47645 | -69.83103 | 6354 ft | 244 kts | 343° |
| 2026-05-07 20:54 | 18.49257 | -69.83669 | 6057 ft | 244 kts | 343° |
| 2026-05-07 20:54 | 18.50866 | -69.84233 | 5745 ft | 244 kts | 344° |
| 2026-05-07 20:54 | 18.52474 | -69.84796 | 5473 ft | 243 kts | 343° |
| 2026-05-07 20:55 | 18.54076 | -69.85360 | 5207 ft | 242 kts | 343° |
| 2026-05-07 20:55 | 18.55660 | -69.85913 | 5030 ft | 236 kts | 345° |
| 2026-05-07 20:55 | 18.57267 | -69.86064 | 4774 ft | 232 kts | 14° |
| 2026-05-07 20:55 | 18.58667 | -69.85319 | 4520 ft | 225 kts | 45° |
| 2026-05-07 20:56 | 18.59473 | -69.83944 | 4230 ft | 221 kts | 74° |
| 2026-05-07 20:56 | 18.59669 | -69.82347 | 4032 ft | 217 kts | 85° |
| 2026-05-07 20:56 | 18.59763 | -69.80781 | 3806 ft | 211 kts | 86° |
| 2026-05-07 20:56 | 18.59844 | -69.79252 | 3631 ft | 208 kts | 86° |
| 2026-05-07 20:57 | 18.59922 | -69.77703 | 3509 ft | 214 kts | 87° |
| 2026-05-07 20:57 | 18.59995 | -69.76119 | 3402 ft | 216 kts | 87° |
| 2026-05-07 20:57 | 18.60022 | -69.74539 | 3203 ft | 217 kts | 98° |
| 2026-05-07 20:57 | 18.59350 | -69.73131 | 2868 ft | 222 kts | 137° |
| 2026-05-07 20:58 | 18.57983 | -69.72415 | 2679 ft | 218 kts | 161° |
| 2026-05-07 20:58 | 18.56592 | -69.71937 | 2591 ft | 205 kts | 158° |
| 2026-05-07 20:58 | 18.55246 | -69.71452 | 2286 ft | 205 kts | 159° |
| 2026-05-07 20:58 | 18.53908 | -69.70962 | 2002 ft | 202 kts | 159° |
| 2026-05-07 20:59 | 18.52615 | -69.70479 | 1743 ft | 191 kts | 158° |
| 2026-05-07 20:59 | 18.51393 | -69.70025 | 1494 ft | 182 kts | 159° |
| 2026-05-07 20:59 | 18.50264 | -69.69609 | 1287 ft | 162 kts | 155° |
| 2026-05-07 20:59 | 18.49270 | -69.69240 | 1116 ft | 143 kts | 158° |
| 2026-05-07 21:00 | 18.48338 | -69.68885 | 903 ft | 143 kts | 160° |
| 2026-05-07 21:00 | 18.47399 | -69.68536 | 733 ft | 144 kts | 161° |
| 2026-05-07 21:00 | 18.46459 | -69.68197 | 530 ft | 141 kts | 159° |
| 2026-05-07 21:00 | 18.45541 | -69.67844 | 336 ft | 139 kts | 159° |
| 2026-05-07 21:01 | 18.44638 | -69.67503 | 177 ft | 137 kts | 161° |
| 2026-05-07 21:01 | 18.43755 | -69.67181 | 71 ft | 125 kts | 162° |
| 2026-05-07 21:01 | 18.43048 | -69.66921 | 67 ft | 78 kts | 161° |
| 2026-05-07 21:01 | 18.42677 | -69.66785 | 72 ft | 53 kts | 161° |
| 2026-05-07 21:02 | 18.42360 | -69.66666 | 70 ft | 34 kts | 163° |
| 2026-05-07 21:02 | 18.42217 | -69.66735 | 68 ft | 24 kts | 287° |
| 2026-05-07 21:02 | 18.42341 | -69.66849 | 63 ft | 25 kts | 338° |
| 2026-05-07 21:02 | 18.42509 | -69.66919 | 70 ft | 26 kts | 340° |
| 2026-05-07 21:03 | 18.42682 | -69.66984 | 71 ft | 27 kts | 339° |
| 2026-05-07 21:03 | 18.42854 | -69.67047 | 66 ft | 27 kts | 343° |
| 2026-05-07 21:03 | 18.42952 | -69.67167 | 68 ft | 20 kts | 273° |
| 2026-05-07 21:03 | 18.42962 | -69.67290 | 65 ft | 15 kts | 275° |
| 2026-05-07 21:04 | 18.42908 | -69.67339 | 67 ft | 11 kts | 176° |
| 2026-05-07 21:04 | 18.42839 | -69.67355 | 64 ft | 11 kts | 226° |
| 2026-05-07 21:04 | 18.42799 | -69.67430 | 71 ft | 12 kts | 252° |
| 2026-05-07 21:04 | 18.42783 | -69.67511 | 65 ft | 12 kts | 268° |
| 2026-05-07 21:05 | 18.42824 | -69.67539 | 65 ft | 7 kts | 22° |
| 2026-05-07 21:05 | 18.42847 | -69.67524 | 71 ft | 0 kts | 37° |